Terminal Aerodrome Forecast
Issued by NWS

Home | Current Version | Previous Version | Text Only | Print | Product List | Glossary On
Versions: 1 2 3 4 5 6 7 8 9 10 11 12 13 14 15 16 17 18
000
FTUS46 KMFR 271740
TAFRBG
TAF
KRBG 271740Z 2718/2818 16004KT P6SM FEW015 SCT030 OVC040
     FM272100 20004KT P6SM VCSH FEW020 BKN035 OVC050
     FM272200 20007KT P6SM -SHRA SCT015 BKN025 OVC030
     FM280200 24004KT P6SM -RA BKN012 OVC030
     FM280600 36002KT 5SM -SHRA BR BKN007 BKN015 OVC020
     FM281200 01003KT 3SM BR VCSH SCT002 BKN004 OVC006=

USA.gov is the U.S. government's official web portal to all federal, state and local government web resources and services.